Time;durP1;ratioP1;P1;durP2;ratioP2;P2;SDS_P1;SDS_P2;PMS_P1;PMS_P2;Temp;Humidity;BMP_temperature;BMP_pressure;BME280_temperature;BME280_humidity;BME280_pressure;Samples;Min_cycle;Max_cycle;Signal;HPM_P1;HPM_P2
2022/06/02 00:01:02;;;;;;;;;;;;;;;12.33;100.00;99111.28;5153551;27;19923;-53
2022/06/02 00:03:33;;;;;;;;;;;;;;;12.30;100.00;99114.78;5154801;27;19927;-50
2022/06/02 00:06:06;;;;;;;;;;;;;;;12.29;100.00;99110.44;5155040;27;19934;-51
2022/06/02 00:08:38;;;;;;;;;;;;;;;12.33;100.00;99103.03;5154651;27;19923;-50
2022/06/02 00:11:10;;;;;;;;;;;;;;;12.29;100.00;99104.16;5155033;27;20408;-51
2022/06/02 00:13:42;;;;;;;;;;;;;;;12.26;100.00;99105.69;5154697;27;19923;-51
2022/06/02 00:16:11;;;;;;;;;;;;;;;12.22;100.00;99107.63;5154863;27;19923;-53
2022/06/02 00:18:45;;;;;;;;;;;;;;;12.15;100.00;99113.84;5154812;27;20071;-51
2022/06/02 00:21:18;;;;;;;;;;;;;;;12.14;100.00;99112.28;5154465;27;19927;-54
2022/06/02 00:23:46;;;;;;;;;;;;;;;12.11;100.00;99117.72;5154532;27;19937;-53
2022/06/02 00:26:21;;;;;;;;;;;;;;;12.04;100.00;99112.94;5154650;27;19923;-50
2022/06/02 00:28:51;;;;;;;;;;;;;;;12.00;100.00;99123.13;5154662;27;19923;-53
2022/06/02 00:31:27;;;;;;;;;;;;;;;12.02;100.00;99123.50;5154299;27;19948;-51
2022/06/02 00:33:57;;;;;;;;;;;;;;;12.00;100.00;99136.84;5154683;27;19923;-53
2022/06/02 00:36:25;;;;;;;;;;;;;;;11.96;100.00;99136.00;5154058;27;20331;-52
2022/06/02 00:38:52;;;;;;;;;;;;;;;11.92;100.00;99138.69;5154400;27;20410;-52
2022/06/02 00:41:21;;;;;;;;;;;;;;;11.87;100.00;99139.03;5154222;27;20390;-53
2022/06/02 00:44:03;;;;;;;;;;;;;;;11.85;100.00;99135.88;5154463;27;19923;-52
2022/06/02 00:46:38;;;;;;;;;;;;;;;11.81;100.00;99126.78;5154324;27;19927;-53
2022/06/02 00:49:09;;;;;;;;;;;;;;;11.79;100.00;99134.59;5154208;27;19923;-54
2022/06/02 00:51:42;;;;;;;;;;;;;;;11.74;100.00;99141.22;5154240;27;19923;-52
2022/06/02 00:59:52;;;;;;;;;;;;;;;11.67;100.00;99152.09;5154266;27;20014;-52
2022/06/02 01:02:18;;;;;;;;;;;;;;;11.69;100.00;99151.72;5153979;27;19930;-51
2022/06/02 01:04:45;;;;;;;;;;;;;;;11.66;100.00;99142.28;5153955;27;19922;-52
2022/06/02 01:07:16;;;;;;;;;;;;;;;11.64;100.00;99149.31;5153756;27;19922;-53
2022/06/02 01:09:49;;;;;;;;;;;;;;;11.59;100.00;99153.16;5154170;27;19923;-51
2022/06/02 01:12:26;;;;;;;;;;;;;;;11.55;100.00;99150.38;5153459;27;19945;-51
2022/06/02 01:14:58;;;;;;;;;;;;;;;11.48;100.00;99146.75;5153775;27;19946;-50
2022/06/02 01:17:27;;;;;;;;;;;;;;;11.48;100.00;99160.47;5153758;27;19923;-52
2022/06/02 01:20:07;;;;;;;;;;;;;;;11.50;100.00;99155.41;5153882;27;19961;-54
2022/06/02 01:22:44;;;;;;;;;;;;;;;11.47;100.00;99147.91;5153664;27;20408;-51
2022/06/02 01:25:24;;;;;;;;;;;;;;;11.44;100.00;99146.69;5153681;27;20309;-51
2022/06/02 01:28:10;;;;;;;;;;;;;;;11.40;100.00;99153.31;5153751;27;19930;-50
2022/06/02 01:30:44;;;;;;;;;;;;;;;11.38;100.00;99163.84;5110096;27;19923;-50
2022/06/02 01:33:14;;;;;;;;;;;;;;;11.35;100.00;99153.63;5153551;27;20354;-52
2022/06/02 01:35:45;;;;;;;;;;;;;;;11.37;100.00;99149.34;5153498;27;19930;-51
2022/06/02 01:38:14;;;;;;;;;;;;;;;11.38;100.00;99159.16;5153302;27;19934;-50
2022/06/02 01:40:45;;;;;;;;;;;;;;;11.36;100.00;99157.94;5153616;27;19923;-50
2022/06/02 01:43:14;;;;;;;;;;;;;;;11.40;100.00;99161.53;5153280;27;19923;-51
2022/06/02 01:45:59;;;;;;;;;;;;;;;11.41;100.00;99150.19;5153521;27;19922;-50
2022/06/02 01:48:31;;;;;;;;;;;;;;;11.40;100.00;99150.56;5153140;27;19923;-52
2022/06/02 01:51:02;;;;;;;;;;;;;;;11.37;100.00;99149.34;5153559;27;19923;-51
2022/06/02 01:53:33;;;;;;;;;;;;;;;11.36;100.00;99157.94;5153255;27;19926;-51
2022/06/02 01:56:11;;;;;;;;;;;;;;;11.35;100.00;99161.84;5153092;27;19927;-53
2022/06/02 01:58:45;;;;;;;;;;;;;;;11.34;100.00;99165.75;5153418;27;19971;-52
2022/06/02 02:01:16;;;;;;;;;;;;;;;11.32;100.00;99179.84;5153268;27;20416;-52
2022/06/02 02:03:47;;;;;;;;;;;;;;;11.38;100.00;99177.56;5153094;27;20285;-51
2022/06/02 02:06:18;;;;;;;;;;;;;;;11.40;100.00;99175.25;5152908;27;20382;-51
2022/06/02 02:08:52;;;;;;;;;;;;;;;11.42;100.00;99179.19;5153046;27;19930;-50
2022/06/02 02:11:40;;;;;;;;;;;;;;;11.44;100.00;99182.38;5152806;27;20422;-54
2022/06/02 02:14:13;;;;;;;;;;;;;;;11.43;100.00;99180.00;5152815;27;19927;-51
2022/06/02 02:16:50;;;;;;;;;;;;;;;11.45;100.00;99183.94;5152894;27;20358;-54
2022/06/02 02:19:22;;;;;;;;;;;;;;;11.45;100.00;99181.22;5152633;27;19930;-51
2022/06/02 02:21:53;;;;;;;;;;;;;;;11.55;100.00;99186.06;5152719;27;19923;-51
2022/06/02 02:24:23;;;;;;;;;;;;;;;11.90;100.00;99184.22;5151896;27;19980;-51
2022/06/02 02:26:53;;;;;;;;;;;;;;;12.15;100.00;99188.03;5153025;27;20343;-52
2022/06/02 02:29:23;;;;;;;;;;;;;;;12.48;100.00;99203.72;5152571;27;19927;-53
2022/06/02 02:31:55;;;;;;;;;;;;;;;12.74;100.00;99215.78;5152544;27;19923;-53
2022/06/02 02:34:35;;;;;;;;;;;;;;;13.04;100.00;99243.19;5152643;27;19922;-53
2022/06/02 02:37:03;;;;;;;;;;;;;;;13.37;100.00;99271.81;5152206;27;20396;-50
2022/06/02 02:39:35;;;;;;;;;;;;;;;13.56;100.00;99307.41;5152553;27;19934;-52
2022/06/02 02:42:04;;;;;;;;;;;;;;;13.88;100.00;99354.47;5152398;27;20026;-53
2022/06/02 02:44:34;;;;;;;;;;;;;;;13.98;100.00;99397.06;5152371;27;19923;-52
2022/06/02 02:47:06;;;;;;;;;;;;;;;14.39;100.00;99426.50;5152307;27;20010;-54
2022/06/02 02:49:35;;;;;;;;;;;;;;;14.55;100.00;99454.63;5152221;27;19977;-54
2022/06/02 02:52:05;;;;;;;;;;;;;;;14.58;100.00;99520.84;5152425;27;19926;-55
2022/06/02 02:54:35;;;;;;;;;;;;;;;14.96;100.00;99543.59;5152318;27;19923;-55
2022/06/02 02:57:04;;;;;;;;;;;;;;;14.97;100.00;99588.56;5152244;27;19971;-55
2022/06/02 02:59:36;;;;;;;;;;;;;;;15.24;100.00;99595.44;5151999;27;20398;-51
2022/06/02 03:02:11;;;;;;;;;;;;;;;15.27;100.00;99630.56;5152264;27;19923;-53
2022/06/02 03:04:45;;;;;;;;;;;;;;;15.63;100.00;99643.81;5152127;27;19946;-54
2022/06/02 03:07:11;;;;;;;;;;;;;;;15.97;100.00;99647.94;5152179;27;19923;-54
2022/06/02 03:09:41;;;;;;;;;;;;;;;16.16;100.00;99657.06;5151876;27;20354;-53
2022/06/02 03:12:09;;;;;;;;;;;;;;;16.44;100.00;99646.06;5151856;27;19930;-53
2022/06/02 03:14:42;;;;;;;;;;;;;;;16.69;100.00;99620.38;5151891;27;19929;-54
2022/06/02 03:17:15;;;;;;;;;;;;;;;16.47;100.00;99578.09;5151973;27;20295;-54
2022/06/02 03:19:44;;;;;;;;;;;;;;;16.87;100.00;99568.59;5152189;27;19945;-54
2022/06/02 03:22:16;;;;;;;;;;;;;;;16.79;100.00;99483.97;5151813;27;19923;-54
2022/06/02 03:24:53;;;;;;;;;;;;;;;16.84;100.00;99475.25;5152019;27;19944;-55
2022/06/02 03:27:33;;;;;;;;;;;;;;;16.78;100.00;99471.31;5151576;27;19923;-55
2022/06/02 03:30:08;;;;;;;;;;;;;;;16.53;100.00;99506.50;5151857;27;19926;-54
2022/06/02 03:32:46;;;;;;;;;;;;;;;16.42;100.00;99568.19;5151856;27;19923;-54
2022/06/02 03:35:17;;;;;;;;;;;;;;;16.01;100.00;99609.22;5154280;27;19968;-57
2022/06/02 03:37:51;;;;;;;;;;;;;;;15.73;100.00;99654.94;5155398;27;19923;-51
2022/06/02 03:40:23;;;;;;;;;;;;;;;15.68;100.00;99680.16;5155262;27;19923;-53
2022/06/02 03:42:54;;;;;;;;;;;;;;;15.49;100.00;99700.56;5155374;27;20297;-56
2022/06/02 03:45:33;;;;;;;;;;;;;;;15.37;100.00;99698.13;5155266;27;19922;-54
2022/06/02 03:48:17;;;;;;;;;;;;;;;15.51;100.00;99695.44;5155445;27;19966;-52
2022/06/02 03:50:52;;;;;;;;;;;;;;;15.48;100.00;99698.19;5155405;27;19923;-53
2022/06/02 03:53:31;;;;;;;;;;;;;;;15.47;100.00;99707.66;5155067;27;19930;-51
2022/06/02 03:56:03;;;;;;;;;;;;;;;15.63;100.00;99707.38;5154861;27;19923;-52
2022/06/02 03:58:39;;;;;;;;;;;;;;;15.33;100.00;99702.84;5154894;27;19930;-53
2022/06/02 04:01:06;;;;;;;;;;;;;;;15.63;100.00;99693.56;5155326;27;20267;-51
2022/06/02 04:03:41;;;;;;;;;;;;;;;15.79;100.00;99682.19;5155051;27;19930;-51
2022/06/02 04:06:14;;;;;;;;;;;;;;;15.79;100.00;99691.28;5155189;27;19930;-54
2022/06/02 04:08:57;;;;;;;;;;;;;;;16.04;100.00;99694.16;5154823;27;20362;-52
2022/06/02 04:13:37;;;;;;;;;;;;;;;16.15;100.00;99688.69;5154698;27;19927;-53
2022/06/02 04:14:26;;;;;;;;;;;;;;;16.27;100.00;99699.41;5154473;27;19923;-54
2022/06/02 04:16:58;;;;;;;;;;;;;;;16.90;100.00;99697.19;5154469;27;20390;-55
2022/06/02 04:22:34;;;;;;;;;;;;;;;16.84;100.00;99702.31;5154918;27;19930;-52
2022/06/02 04:25:13;;;;;;;;;;;;;;;16.48;100.00;99691.16;5154520;27;19923;-54
2022/06/02 04:27:43;;;;;;;;;;;;;;;16.61;100.00;99704.63;5154655;27;19923;-54
2022/06/02 04:30:14;;;;;;;;;;;;;;;16.67;100.00;99700.28;5154485;27;19934;-54
2022/06/02 04:32:45;;;;;;;;;;;;;;;16.97;100.00;99701.94;5154607;27;20054;-51
2022/06/02 04:35:20;;;;;;;;;;;;;;;17.09;100.00;99702.34;5154391;27;19973;-51
2022/06/02 04:37:52;;;;;;;;;;;;;;;17.60;100.00;99705.84;5154159;27;19978;-52
2022/06/02 04:40:25;;;;;;;;;;;;;;;17.68;100.00;99682.44;5154350;27;19930;-51
2022/06/02 04:42:57;;;;;;;;;;;;;;;17.86;100.00;99688.78;5154457;27;19923;-53
2022/06/02 04:45:28;;;;;;;;;;;;;;;17.80;100.00;99665.41;5153854;27;19927;-54
2022/06/02 04:48:00;;;;;;;;;;;;;;;18.24;100.00;99650.16;5154040;27;19930;-53
2022/06/02 04:50:30;;;;;;;;;;;;;;;17.68;100.00;99654.72;5154371;27;19923;-52
2022/06/02 04:53:10;;;;;;;;;;;;;;;17.72;100.00;99663.81;5154085;27;19922;-51
2022/06/02 04:55:41;;;;;;;;;;;;;;;18.40;100.00;99673.88;5153913;27;19923;-51
2022/06/02 04:58:11;;;;;;;;;;;;;;;19.03;100.00;99622.63;5154173;27;20014;-55
2022/06/02 05:00:43;;;;;;;;;;;;;;;18.89;100.00;99580.28;5153702;27;19922;-51
2022/06/02 05:03:13;;;;;;;;;;;;;;;19.46;100.00;99462.91;5153974;27;19979;-54
2022/06/02 05:05:43;;;;;;;;;;;;;;;19.80;100.00;99395.34;5154102;27;19927;-53
2022/06/02 05:08:21;;;;;;;;;;;;;;;20.17;100.00;99291.31;5153895;27;19934;-55
2022/06/02 05:10:51;;;;;;;;;;;;;;;20.35;100.00;99238.84;5153504;27;20382;-54
2022/06/02 05:13:22;;;;;;;;;;;;;;;21.07;100.00;99215.00;5153545;27;19923;-55
2022/06/02 05:16:02;;;;;;;;;;;;;;;21.29;100.00;99039.59;5153865;27;19930;-60
2022/06/02 05:18:43;;;;;;;;;;;;;;;21.17;100.00;98921.28;5153580;27;19930;-59
2022/06/02 05:21:24;;;;;;;;;;;;;;;21.98;100.00;98852.22;5149275;27;19930;-59
2022/06/02 05:24:06;;;;;;;;;;;;;;;21.85;100.00;98721.09;5153627;27;19984;-59
2022/06/02 05:26:45;;;;;;;;;;;;;;;22.55;100.00;98752.50;5153405;27;19929;-59
2022/06/02 05:29:25;;;;;;;;;;;;;;;22.50;100.00;98538.81;5153170;27;19923;-59
2022/06/02 05:31:58;;;;;;;;;;;;;;;23.07;100.00;98476.22;5153108;27;19923;-58
2022/06/02 05:34:45;;;;;;;;;;;;;;;22.76;100.00;98483.47;5153442;27;19923;-54
2022/06/02 05:37:17;;;;;;;;;;;;;;;22.54;100.00;98522.69;5153037;27;19930;-58
2022/06/02 05:39:51;;;;;;;;;;;;;;;22.96;100.00;98469.06;5153064;27;19923;-60
2022/06/02 05:42:25;;;;;;;;;;;;;;;22.11;100.00;98520.03;5153024;27;19974;-61
2022/06/02 05:44:59;;;;;;;;;;;;;;;22.69;100.00;98578.78;5153249;27;19922;-61
2022/06/02 05:47:37;;;;;;;;;;;;;;;22.97;100.00;98476.19;5153086;27;20381;-61
2022/06/02 05:50:12;;;;;;;;;;;;;;;22.35;100.00;98397.44;5152935;27;20290;-61
2022/06/02 05:52:44;;;;;;;;;;;;;;;22.89;100.00;98409.88;5152813;27;19923;-60
2022/06/02 05:55:28;;;;;;;;;;;;;;;23.29;100.00;98401.28;5152932;27;20014;-59
2022/06/02 05:58:00;;;;;;;;;;;;;;;23.65;100.00;98284.91;5151686;27;19923;-61
2022/06/02 06:00:31;;;;;;;;;;;;;;;23.87;100.00;98307.06;5153101;27;20386;-60
2022/06/02 06:03:24;;;;;;;;;;;;;;;23.90;100.00;98286.50;5152495;27;19922;-58
2022/06/02 06:05:53;;;;;;;;;;;;;;;23.79;100.00;98264.66;5092588;27;19923;-58
2022/06/02 06:08:29;;;;;;;;;;;;;;;24.17;100.00;98263.91;5152484;27;19941;-57
2022/06/02 06:11:01;;;;;;;;;;;;;;;23.30;100.00;98279.03;5152806;27;20026;-59
2022/06/02 06:13:38;;;;;;;;;;;;;;;22.54;100.00;98332.75;5152397;27;20318;-58
2022/06/02 06:16:09;;;;;;;;;;;;;;;20.75;100.00;98411.50;5152496;27;19923;-59
2022/06/02 06:18:42;;;;;;;;;;;;;;;21.27;100.00;98615.53;5152461;27;19923;-59
2022/06/02 06:21:20;;;;;;;;;;;;;;;21.46;100.00;98519.69;5152372;27;20414;-60
2022/06/02 06:24:06;;;;;;;;;;;;;;;21.52;100.00;98615.44;5152433;27;19927;-58
2022/06/02 06:26:37;;;;;;;;;;;;;;;21.65;100.00;98597.88;5152307;27;19923;-61
2022/06/02 06:29:11;;;;;;;;;;;;;;;21.12;100.00;98732.28;5152136;27;19923;-59
2022/06/02 06:31:40;;;;;;;;;;;;;;;21.44;100.00;98775.88;5152433;27;19923;-59
2022/06/02 06:34:12;;;;;;;;;;;;;;;21.15;100.00;98888.25;5152047;27;19923;-60
2022/06/02 06:36:50;;;;;;;;;;;;;;;20.74;100.00;99078.47;5152124;27;19946;-58
2022/06/02 06:39:22;;;;;;;;;;;;;;;21.43;100.00;98835.69;5152065;27;19923;-60
2022/06/02 06:42:00;;;;;;;;;;;;;;;21.61;100.00;98799.63;5152280;27;20005;-60
2022/06/02 06:44:27;;;;;;;;;;;;;;;22.63;100.00;98650.44;5151992;27;19929;-60
2022/06/02 06:46:56;;;;;;;;;;;;;;;22.40;100.00;98523.28;5152128;27;19927;-59
2022/06/02 06:49:32;;;;;;;;;;;;;;;22.82;100.00;98545.09;5151852;27;20439;-59
2022/06/02 06:52:07;;;;;;;;;;;;;;;22.66;100.00;98526.59;5152109;27;19950;-58
2022/06/02 06:54:39;;;;;;;;;;;;;;;21.31;100.00;98619.75;5151991;27;19923;-59
2022/06/02 06:57:10;;;;;;;;;;;;;;;22.08;100.00;98547.63;5151872;27;19926;-57
2022/06/02 06:59:41;;;;;;;;;;;;;;;23.30;100.00;98358.13;5151751;27;19986;-56
2022/06/02 07:02:12;;;;;;;;;;;;;;;24.15;100.00;98290.81;5151584;27;19930;-55
2022/06/02 07:04:44;;;;;;;;;;;;;;;24.49;100.00;98216.66;5152304;27;20524;-54
2022/06/02 07:07:13;;;;;;;;;;;;;;;24.12;100.00;98216.19;5151877;27;20354;-54
2022/06/02 07:09:44;;;;;;;;;;;;;;;24.54;100.00;98218.78;5151067;27;19941;-58
2022/06/02 07:15:01;;;;;;;;;;;;;;;25.64;100.00;98208.22;5151823;27;19930;-59
2022/06/02 07:17:32;;;;;;;;;;;;;;;25.48;100.00;98206.72;5151549;27;19923;-60
2022/06/02 07:20:02;;;;;;;;;;;;;;;25.40;100.00;98199.25;5151353;27;19930;-60
2022/06/02 07:22:32;;;;;;;;;;;;;;;25.40;100.00;98202.81;5151060;27;19972;-62
2022/06/02 07:25:03;;;;;;;;;;;;;;;25.43;100.00;98215.88;5151889;27;19923;-59
2022/06/02 07:27:32;;;;;;;;;;;;;;;25.16;100.00;98216.22;5151548;27;19927;-59
2022/06/02 07:30:09;;;;;;;;;;;;;;;25.72;100.00;98220.56;5151529;27;19930;-60
2022/06/02 07:32:49;;;;;;;;;;;;;;;25.25;100.00;98216.09;5151992;27;20014;-59
2022/06/02 07:35:30;;;;;;;;;;;;;;;25.49;100.00;98216.72;5147043;27;19923;-60
2022/06/02 07:38:01;;;;;;;;;;;;;;;25.67;100.00;98207.25;5151529;27;19948;-60
2022/06/02 07:40:42;;;;;;;;;;;;;;;26.42;100.00;98207.59;5151630;27;19922;-60
2022/06/02 07:43:31;;;;;;;;;;;;;;;25.75;100.00;98205.53;5151624;27;19975;-60
2022/06/02 07:46:04;;;;;;;;;;;;;;;25.10;100.00;98199.28;5125631;27;19934;-60
2022/06/02 07:48:38;;;;;;;;;;;;;;;23.59;100.00;98194.47;5151538;27;19923;-60
2022/06/02 07:51:09;;;;;;;;;;;;;;;23.27;100.00;98282.78;5151443;27;20298;-59
2022/06/02 07:53:57;;;;;;;;;;;;;;;23.52;100.00;98256.38;5151337;27;20405;-60
2022/06/02 07:56:26;;;;;;;;;;;;;;;22.06;100.00;98337.97;5151527;27;19923;-61
2022/06/02 07:58:59;;;;;;;;;;;;;;;22.02;100.00;98551.44;5151660;27;19922;-61
2022/06/02 08:01:46;;;;;;;;;;;;;;;22.23;100.00;98644.81;5151276;27;19923;-59
2022/06/02 08:04:19;;;;;;;;;;;;;;;22.07;100.00;98737.88;5151765;27;20274;-59
2022/06/02 08:06:47;;;;;;;;;;;;;;;21.99;100.00;98733.78;5150956;27;19930;-60
2022/06/02 08:09:24;;;;;;;;;;;;;;;21.61;100.00;98690.06;5151109;27;19930;-60
2022/06/02 08:11:56;;;;;;;;;;;;;;;21.23;100.00;98782.13;5151114;27;20275;-60
2022/06/02 08:14:28;;;;;;;;;;;;;;;21.39;100.00;98860.09;5150723;27;19998;-60
2022/06/02 08:16:59;;;;;;;;;;;;;;;21.27;100.00;98967.56;5150943;27;19930;-60
2022/06/02 08:19:30;;;;;;;;;;;;;;;21.07;100.00;99012.31;5150822;27;20451;-59
2022/06/02 08:21:57;;;;;;;;;;;;;;;21.00;100.00;98972.72;5153138;27;19923;-60
2022/06/02 08:24:34;;;;;;;;;;;;;;;20.95;100.00;99068.78;5154194;27;19930;-57
2022/06/02 08:27:07;;;;;;;;;;;;;;;20.95;100.00;98937.03;5154040;27;19923;-58
2022/06/02 08:29:38;;;;;;;;;;;;;;;20.95;100.00;98914.75;5154202;27;20288;-58
2022/06/02 08:32:17;;;;;;;;;;;;;;;20.57;100.00;98971.09;5154190;27;19936;-58
2022/06/02 08:34:49;;;;;;;;;;;;;;;20.96;100.00;98905.94;5154338;27;19988;-56
2022/06/02 08:37:21;;;;;;;;;;;;;;;20.78;100.00;98983.66;5153940;27;19930;-56
2022/06/02 08:39:54;;;;;;;;;;;;;;;20.71;100.00;98995.78;5154288;27;19923;-60
2022/06/02 08:42:25;;;;;;;;;;;;;;;20.38;100.00;99042.31;5154075;27;19930;-59
2022/06/02 08:45:10;;;;;;;;;;;;;;;20.37;100.00;99037.97;5153878;27;19935;-59
2022/06/02 08:48:03;;;;;;;;;;;;;;;20.63;100.00;98995.19;5153916;27;20373;-59
2022/06/02 08:50:47;;;;;;;;;;;;;;;20.51;100.00;98995.09;5154099;27;20013;-59
2022/06/02 08:53:50;;;;;;;;;;;;;;;20.64;100.00;99044.09;5153897;27;19923;-59
2022/06/02 08:56:30;;;;;;;;;;;;;;;20.54;100.00;98963.59;5153725;27;19930;-59
2022/06/02 08:59:19;;;;;;;;;;;;;;;20.57;100.00;99094.41;5153631;27;19930;-59
2022/06/02 09:02:15;;;;;;;;;;;;;;;20.61;100.00;99152.81;5154003;27;20379;-57
2022/06/02 09:04:52;;;;;;;;;;;;;;;20.72;100.00;99029.97;5153904;27;19927;-58
2022/06/02 09:07:36;;;;;;;;;;;;;;;20.73;100.00;99023.97;5153779;27;19977;-59
2022/06/02 09:10:15;;;;;;;;;;;;;;;20.45;100.00;98916.84;5153627;27;19930;-59
2022/06/02 09:13:05;;;;;;;;;;;;;;;20.76;100.00;99016.72;5153575;27;19946;-59
2022/06/02 09:16:00;;;;;;;;;;;;;;;20.87;100.00;98995.75;5153508;27;20343;-60
2022/06/02 09:18:45;;;;;;;;;;;;;;;21.24;100.00;98814.34;5153575;27;19922;-58
2022/06/02 09:21:14;;;;;;;;;;;;;;;21.08;100.00;98818.78;5153531;27;19930;-60
2022/06/02 09:23:48;;;;;;;;;;;;;;;21.30;100.00;98712.97;5153721;27;20016;-57
2022/06/02 09:26:22;;;;;;;;;;;;;;;21.29;100.00;98677.16;5153911;27;19922;-60
2022/06/02 09:28:59;;;;;;;;;;;;;;;21.24;100.00;98711.19;5153914;27;20319;-59
2022/06/02 09:31:40;;;;;;;;;;;;;;;21.28;100.00;98556.53;5153180;27;19923;-62
2022/06/02 09:34:16;;;;;;;;;;;;;;;21.31;100.00;98736.06;5149994;27;20709;-60
2022/06/02 09:37:02;;;;;;;;;;;;;;;21.09;100.00;98535.28;5153338;27;20017;-59
2022/06/02 09:39:36;;;;;;;;;;;;;;;21.17;100.00;98650.13;5153322;27;19923;-60
2022/06/02 09:42:14;;;;;;;;;;;;;;;20.94;100.00;98537.03;5153288;27;19944;-60
2022/06/02 09:44:50;;;;;;;;;;;;;;;20.12;100.00;98438.25;5153037;27;19928;-58
2022/06/02 09:47:24;;;;;;;;;;;;;;;20.64;100.00;98331.13;5153172;27;19930;-59
2022/06/02 09:50:07;;;;;;;;;;;;;;;20.43;100.00;98426.53;5153516;27;19922;-59
2022/06/02 09:52:40;;;;;;;;;;;;;;;20.78;100.00;98496.16;5153097;27;20370;-59
2022/06/02 09:55:16;;;;;;;;;;;;;;;20.68;100.00;98571.28;5153303;27;19923;-59
2022/06/02 09:58:02;;;;;;;;;;;;;;;21.04;100.00;98444.69;5153287;27;19971;-60
2022/06/02 10:00:45;;;;;;;;;;;;;;;21.00;100.00;98465.56;5153256;27;19922;-59
2022/06/02 10:03:33;;;;;;;;;;;;;;;21.20;100.00;98518.22;5153145;27;19922;-59
2022/06/02 10:06:07;;;;;;;;;;;;;;;21.23;100.00;98362.00;5153068;27;19927;-59
2022/06/02 10:08:39;;;;;;;;;;;;;;;21.34;100.00;98406.97;5153043;27;19926;-59
2022/06/02 10:11:11;;;;;;;;;;;;;;;21.28;100.00;98394.84;5153051;27;19923;-59
2022/06/02 10:13:48;;;;;;;;;;;;;;;21.24;100.00;98374.69;5152799;27;20297;-59
2022/06/02 10:16:29;;;;;;;;;;;;;;;21.06;100.00;98300.13;5152595;27;19930;-58
2022/06/02 10:19:10;;;;;;;;;;;;;;;20.66;100.00;98277.78;5152714;27;19922;-53
2022/06/02 10:21:45;;;;;;;;;;;;;;;20.62;100.00;98263.19;5096339;27;19922;-58
2022/06/02 10:24:28;;;;;;;;;;;;;;;20.33;100.00;98261.44;5152451;27;19981;-55
2022/06/02 10:27:01;;;;;;;;;;;;;;;20.19;100.00;98264.69;5152720;27;19922;-59
2022/06/02 10:29:43;;;;;;;;;;;;;;;20.98;100.00;98261.84;5152521;27;20305;-60
2022/06/02 10:32:33;;;;;;;;;;;;;;;21.18;100.00;98262.22;5152376;27;19926;-59
2022/06/02 10:35:25;;;;;;;;;;;;;;;21.31;100.00;98262.13;5057081;27;19943;-57
2022/06/02 10:38:06;;;;;;;;;;;;;;;21.10;100.00;98258.19;5152162;27;19923;-56
2022/06/02 10:40:54;;;;;;;;;;;;;;;21.10;100.00;98294.41;5130656;27;19922;-57
2022/06/02 10:43:45;;;;;;;;;;;;;;;21.26;100.00;98249.56;5151653;27;19923;-57
2022/06/02 10:46:38;;;;;;;;;;;;;;;21.36;100.00;98286.66;5152114;27;19949;-57
2022/06/02 10:49:12;;;;;;;;;;;;;;;21.54;100.00;98278.34;5092227;27;19970;-57
2022/06/02 10:51:55;;;;;;;;;;;;;;;21.19;100.00;98260.22;5152182;27;20398;-57
2022/06/02 10:54:34;;;;;;;;;;;;;;;21.36;100.00;98267.91;5152068;27;19946;-57
2022/06/02 10:57:27;;;;;;;;;;;;;;;21.49;100.00;98265.00;5151637;27;19923;-58
2022/06/02 11:00:02;;;;;;;;;;;;;;;21.60;100.00;98248.59;5091549;27;19923;-57
2022/06/02 11:02:47;;;;;;;;;;;;;;;21.64;100.00;98201.03;5151746;27;19923;-57
2022/06/02 11:05:30;;;;;;;;;;;;;;;21.29;100.00;98201.28;5151773;27;20025;-58
2022/06/02 11:08:15;;;;;;;;;;;;;;;21.03;100.00;98230.59;5151899;27;19923;-57
2022/06/02 11:10:47;;;;;;;;;;;;;;;20.77;100.00;98204.94;5152016;27;19923;-56
2022/06/02 11:13:32;;;;;;;;;;;;;;;20.89;100.00;98201.25;5151639;27;19971;-57
2022/06/02 11:16:16;;;;;;;;;;;;;;;20.98;100.00;98220.81;5151555;27;19927;-57
2022/06/02 11:19:02;;;;;;;;;;;;;;;20.79;100.00;98206.03;5151728;27;20377;-56
2022/06/02 11:21:42;;;;;;;;;;;;;;;21.00;100.00;98218.34;5151709;27;19938;-57
2022/06/02 11:24:35;;;;;;;;;;;;;;;20.84;100.00;98210.22;5151352;27;20296;-56
2022/06/02 11:27:24;;;;;;;;;;;;;;;21.04;100.00;98232.91;5090680;27;19923;-56
2022/06/02 11:30:05;;;;;;;;;;;;;;;20.49;100.00;98240.94;5151417;27;20266;-57
2022/06/02 11:32:51;;;;;;;;;;;;;;;20.44;100.00;98239.53;5129926;27;19945;-57
2022/06/02 11:35:45;;;;;;;;;;;;;;;20.80;100.00;98218.72;5142998;27;19922;-56
2022/06/02 11:38:32;;;;;;;;;;;;;;;20.50;100.00;98248.09;5151321;27;19923;-56
2022/06/02 11:41:13;;;;;;;;;;;;;;;20.76;100.00;98223.66;5151494;27;19923;-57
2022/06/02 11:43:47;;;;;;;;;;;;;;;21.19;100.00;98213.59;5150974;27;19934;-57
2022/06/02 11:46:33;;;;;;;;;;;;;;;21.35;100.00;98223.75;5151391;27;19923;-57
2022/06/02 11:49:23;;;;;;;;;;;;;;;21.15;100.00;98208.19;5151397;27;19927;-57
2022/06/02 11:52:10;;;;;;;;;;;;;;;20.67;100.00;98231.97;5125156;27;19931;-57
2022/06/02 11:54:52;;;;;;;;;;;;;;;21.14;100.00;98259.59;5142795;27;19923;-57
2022/06/02 11:57:37;;;;;;;;;;;;;;;20.44;100.00;98247.88;5153870;27;19923;-57
2022/06/02 12:00:17;;;;;;;;;;;;;;;20.41;100.00;98265.50;5155106;27;20323;-57
2022/06/02 12:03:00;;;;;;;;;;;;;;;20.92;100.00;98259.66;5151134;27;19923;-57
2022/06/02 12:05:33;;;;;;;;;;;;;;;20.45;100.00;98352.44;5151555;27;20017;-57
2022/06/02 12:08:11;;;;;;;;;;;;;;;20.68;100.00;98225.94;5154644;27;19922;-57
2022/06/02 12:10:58;;;;;;;;;;;;;;;20.52;100.00;98326.38;5154421;27;19995;-57
2022/06/02 12:13:35;;;;;;;;;;;;;;;20.00;100.00;98230.41;5154681;27;19922;-57
2022/06/02 12:16:13;;;;;;;;;;;;;;;20.78;100.00;98209.28;5154857;27;19946;-57
2022/06/02 12:18:44;;;;;;;;;;;;;;;20.45;100.00;98213.25;5154395;27;19927;-58
2022/06/02 12:21:25;;;;;;;;;;;;;;;20.28;100.00;98216.69;5154421;27;19923;-57
2022/06/02 12:24:08;;;;;;;;;;;;;;;20.65;100.00;98223.28;5154781;27;19922;-57
2022/06/02 12:26:40;;;;;;;;;;;;;;;20.40;100.00;98218.63;5154017;27;19930;-56
2022/06/02 12:29:12;;;;;;;;;;;;;;;20.34;100.00;98214.88;5154747;27;19946;-56
2022/06/02 12:31:47;;;;;;;;;;;;;;;20.83;100.00;98215.03;5154198;27;20318;-57
2022/06/02 12:34:31;;;;;;;;;;;;;;;20.84;100.00;98213.03;5154239;27;19930;-56
2022/06/02 12:37:10;;;;;;;;;;;;;;;21.04;100.00;98227.34;5101975;27;20271;-61
2022/06/02 12:39:46;;;;;;;;;;;;;;;20.96;100.00;98272.66;5154318;27;19923;-59
2022/06/02 12:42:27;;;;;;;;;;;;;;;20.95;100.00;98374.97;5154484;27;20293;-60
2022/06/02 12:45:02;;;;;;;;;;;;;;;20.80;100.00;98391.44;5154082;27;19923;-59
2022/06/02 12:47:42;;;;;;;;;;;;;;;20.77;100.00;98548.31;5154092;27;20305;-64
2022/06/02 12:50:17;;;;;;;;;;;;;;;20.65;100.00;98508.09;5153948;27;19923;-63
2022/06/02 12:52:55;;;;;;;;;;;;;;;20.28;100.00;98700.97;5154128;27;20031;-63
2022/06/02 12:55:27;;;;;;;;;;;;;;;19.73;100.00;98820.50;5154191;27;19930;-64
2022/06/02 12:58:14;;;;;;;;;;;;;;;19.31;100.00;98853.63;5153886;27;20386;-64
2022/06/02 13:00:54;;;;;;;;;;;;;;;18.60;100.00;99161.25;5153939;27;19930;-63
2022/06/02 13:03:42;;;;;;;;;;;;;;;18.20;100.00;99255.38;5153795;27;19922;-63
2022/06/02 13:06:27;;;;;;;;;;;;;;;17.98;100.00;99359.44;5153545;27;19937;-64
2022/06/02 13:09:13;;;;;;;;;;;;;;;17.54;100.00;99469.84;5153724;27;20378;-63
2022/06/02 13:11:53;;;;;;;;;;;;;;;17.21;100.00;99545.97;5153615;27;19927;-65
2022/06/02 13:14:41;;;;;;;;;;;;;;;16.54;100.00;99500.59;5149656;27;19930;-65
2022/06/02 13:17:21;;;;;;;;;;;;;;;16.34;100.00;99550.00;5153382;27;20382;-62
2022/06/02 13:20:06;;;;;;;;;;;;;;;15.80;100.00;99590.59;5131945;27;19923;-62
2022/06/02 13:23:06;;;;;;;;;;;;;;;15.62;100.00;99691.94;5153434;27;20033;-65
2022/06/02 13:25:47;;;;;;;;;;;;;;;15.52;100.00;99737.69;5049148;28;19973;-68
2022/06/02 13:28:25;;;;;;;;;;;;;;;15.35;100.00;99782.56;5049357;28;19924;-57
2022/06/02 13:31:10;;;;;;;;;;;;;;;15.30;100.00;99798.31;5049130;28;20011;-58
2022/06/02 13:34:06;;;;;;;;;;;;;;;15.25;100.00;99826.25;5049256;28;20378;-55